Time;durP1;ratioP1;P1;durP2;ratioP2;P2;SDS_P1;SDS_P2;PMS_P1;PMS_P2;Temp;Humidity;BMP_temperature;BMP_pressure;BME280_temperature;BME280_humidity;BME280_pressure;Samples;Min_cycle;Max_cycle;Signal;HPM_P1;HPM_P2
2022/12/10 00:02:05;;;;;;;57.60;32.67;;;;;;;7.09;60.43;97564.63;6979888;28;20289;-79
2022/12/10 00:05:30;;;;;;;57.43;34.00;;;;;;;6.66;60.48;97514.53;6977104;28;20213;-79
2022/12/10 00:08:55;;;;;;;55.27;31.43;;;;;;;7.38;60.01;97552.50;6980229;28;20687;-79
2022/12/10 00:12:16;;;;;;;53.93;30.93;;;;;;;7.42;60.21;97549.19;6980451;28;20218;-79
2022/12/10 00:15:38;;;;;;;56.63;31.07;;;;;;;7.45;60.12;97550.59;6980271;28;20205;-79
2022/12/10 00:19:00;;;;;;;57.57;32.37;;;;;;;7.04;60.41;97531.44;6980831;28;20245;-79
2022/12/10 00:22:23;;;;;;;57.33;33.40;;;;;;;7.09;61.11;97561.13;6981051;28;20209;-79
2022/12/10 00:25:45;;;;;;;56.80;31.67;;;;;;;7.03;61.11;97556.63;6980289;28;20213;-79
2022/12/10 00:29:09;;;;;;;66.13;33.57;;;;;;;7.01;61.40;97556.81;6979022;28;20238;-79
2022/12/10 00:32:31;;;;;;;68.83;34.33;;;;;;;7.10;61.17;97547.50;6980303;28;20208;-79
2022/12/10 00:35:53;;;;;;;66.50;34.20;;;;;;;6.87;61.59;97530.28;6979898;28;20254;-79
2022/12/10 00:39:18;;;;;;;67.77;34.63;;;;;;;6.73;61.47;97529.53;6980157;28;20318;-79
2022/12/10 00:42:39;;;;;;;60.33;34.00;;;;;;;6.61;61.26;97517.03;6979701;28;20603;-79
2022/12/10 00:46:01;;;;;;;64.90;34.87;;;;;;;7.11;61.12;97556.34;6979201;28;20198;-79
2022/12/10 00:49:26;;;;;;;62.57;34.57;;;;;;;6.83;61.77;97548.66;6978780;28;20241;-78
2022/12/10 00:52:47;;;;;;;60.60;32.97;;;;;;;7.19;61.06;97538.16;6979803;28;20213;-79
2022/12/10 00:56:33;;;;;;;59.90;35.50;;;;;;;7.42;60.43;97538.44;6978722;28;20205;-79
2022/12/10 00:59:55;;;;;;;63.70;35.63;;;;;;;7.02;60.71;97531.66;6981530;28;20224;-79
2022/12/10 01:03:16;;;;;;;65.73;33.90;;;;;;;7.06;60.71;97562.38;6979598;28;20206;-79
2022/12/10 01:06:43;;;;;;;59.20;34.57;;;;;;;7.11;61.31;97561.72;6977364;28;20205;-79
2022/12/10 01:10:05;;;;;;;60.23;33.97;;;;;;;7.11;60.82;97543.78;6978453;28;20237;-79
2022/12/10 01:13:29;;;;;;;61.70;35.73;;;;;;;7.18;61.49;97571.38;6978647;28;20207;-78
2022/12/10 01:17:02;;;;;;;57.33;32.63;;;;;;;7.15;61.19;97577.19;6978084;28;20206;-79
2022/12/10 01:20:39;;;;;;;56.73;34.27;;;;;;;7.01;61.14;97572.88;6976946;28;20227;-79
2022/12/10 01:24:00;;;;;;;63.00;32.70;;;;;;;6.93;61.75;97583.03;6978563;28;20222;-79
2022/12/10 01:27:24;;;;;;;67.20;32.73;;;;;;;6.79;62.31;97587.59;6977673;28;20207;-79
2022/12/10 01:30:48;;;;;;;60.47;32.30;;;;;;;7.07;61.16;97568.56;6978331;28;20721;-79
2022/12/10 01:34:12;;;;;;;61.63;34.17;;;;;;;7.09;60.55;97559.28;6978826;28;20256;-79
2022/12/10 01:37:34;;;;;;;58.43;33.27;;;;;;;7.06;61.36;97604.41;6976789;28;20244;-79
2022/12/10 01:40:56;;;;;;;62.00;33.60;;;;;;;6.90;61.87;97610.25;6978220;28;20660;-79
2022/12/10 01:44:54;;;;;;;59.97;31.90;;;;;;;7.12;61.52;97615.09;6977388;28;20247;-79
2022/12/10 01:48:29;;;;;;;;;;;;;;;;;;;;;
2022/12/10 01:51:54;;;;;;;55.73;32.07;;;;;;;7.20;61.01;97614.06;6975317;28;20629;-79
2022/12/10 01:55:45;;;;;;;53.73;31.00;;;;;;;6.96;60.74;97615.56;6977235;28;20616;-79
2022/12/10 01:59:10;;;;;;;51.23;29.97;;;;;;;6.78;61.80;97619.97;6964958;28;20235;-79
2022/12/10 02:02:42;;;;;;;57.33;31.73;;;;;;;6.86;61.60;97628.59;6979266;28;20799;-79
2022/12/10 02:06:17;;;;;;;60.27;32.87;;;;;;;7.15;60.83;97605.81;6977355;28;20219;-79
2022/12/10 02:09:43;;;;;;;57.10;30.67;;;;;;;6.96;60.66;97586.09;6982957;28;20614;-79
2022/12/10 02:13:09;;;;;;;55.37;30.90;;;;;;;6.96;61.34;97598.69;6983489;28;20253;-79
2022/12/10 02:16:34;;;;;;;56.20;31.57;;;;;;;7.09;61.11;97602.16;6983639;28;20667;-79
2022/12/10 02:20:10;;;;;;;51.57;30.57;;;;;;;7.21;60.64;97611.16;6983396;28;20228;-79
2022/12/10 02:23:39;;;;;;;54.53;30.30;;;;;;;6.95;60.72;97570.25;6983721;28;20259;-78
2022/12/10 02:27:07;;;;;;;55.83;31.43;;;;;;;6.76;60.78;97613.97;6982162;28;20198;-79
2022/12/10 02:30:31;;;;;;;50.57;30.43;;;;;;;7.03;61.27;97586.09;6983310;28;20222;-79
2022/12/10 02:33:57;;;;;;;55.07;31.43;;;;;;;6.96;61.43;97598.69;6983646;28;20208;-79
2022/12/10 02:37:23;;;;;;;45.77;29.00;;;;;;;7.39;60.13;97599.72;6982833;28;20192;-78
2022/12/10 02:40:47;;;;;;;50.20;28.60;;;;;;;7.46;59.92;97576.38;6982935;28;20223;-79
2022/12/10 02:44:12;;;;;;;53.50;30.30;;;;;;;7.55;59.37;97588.50;6982923;28;20206;-80
2022/12/10 02:47:45;;;;;;;54.47;30.90;;;;;;;6.97;59.95;97576.22;6982046;28;20239;-79
2022/12/10 02:51:06;;;;;;;57.13;31.33;;;;;;;6.95;61.36;97576.41;6981905;28;20218;-79
2022/12/10 02:54:38;;;;;;;56.97;30.53;;;;;;;6.84;61.68;97579.75;6982377;28;20211;-79
2022/12/10 02:58:07;;;;;;;56.53;32.03;;;;;;;7.30;60.90;97580.38;6981509;28;20231;-79
2022/12/10 03:01:34;;;;;;;55.63;30.97;;;;;;;7.20;60.39;97561.25;6981852;28;20203;-79
2022/12/10 03:05:05;;;;;;;55.50;31.27;;;;;;;6.98;61.34;97551.06;6981082;28;20221;-79
2022/12/10 03:08:30;;;;;;;61.83;31.87;;;;;;;7.20;59.85;97566.63;6979584;28;20233;-79
2022/12/10 03:11:56;;;;;;;51.13;30.63;;;;;;;6.87;60.21;97562.44;6980602;28;20329;-78
2022/12/10 03:15:20;;;;;;;58.10;31.63;;;;;;;7.20;59.88;97565.81;6980590;28;20207;-79
2022/12/10 03:18:43;;;;;;;49.40;27.77;;;;;;;7.30;60.03;97577.69;6980275;28;20247;-79
2022/12/10 03:22:10;;;;;;;54.27;30.97;;;;;;;7.28;59.94;97568.22;6980277;28;20214;-79
2022/12/10 03:25:33;;;;;;;55.50;30.00;;;;;;;7.18;59.89;97575.94;6980107;28;20212;-79
2022/12/10 03:28:57;;;;;;;48.00;29.03;;;;;;;6.62;60.47;97535.56;6980134;28;20266;-79
2022/12/10 03:32:21;;;;;;;49.83;27.67;;;;;;;6.84;60.53;97573.59;6980572;28;20285;-79
2022/12/10 03:35:42;;;;;;;47.87;28.97;;;;;;;7.05;59.92;97560.72;6979835;28;20349;-80
2022/12/10 03:39:06;;;;;;;54.83;28.80;;;;;;;6.80;60.96;97548.25;6978219;28;20716;-79
2022/12/10 03:42:27;;;;;;;49.63;28.43;;;;;;;6.76;61.33;97547.84;6978296;28;20307;-79
2022/12/10 03:45:49;;;;;;;51.23;29.87;;;;;;;6.67;61.86;97548.31;6979213;28;20240;-79
2022/12/10 03:49:11;;;;;;;54.00;31.73;;;;;;;6.68;62.27;97549.94;6980925;28;20236;-79
2022/12/10 03:52:38;;;;;;;43.83;27.00;;;;;;;6.92;60.82;97547.38;6980654;28;20657;-79
2022/12/10 03:56:01;;;;;;;49.50;30.17;;;;;;;6.94;60.71;97553.34;6979118;28;20237;-79
2022/12/10 03:59:23;;;;;;;44.97;26.23;;;;;;;6.61;60.43;97491.03;6979393;28;20659;-79
2022/12/10 04:02:48;;;;;;;44.47;27.00;;;;;;;6.51;60.79;97538.88;6981063;28;20205;-79
2022/12/10 04:06:12;;;;;;;50.13;27.77;;;;;;;6.71;60.58;97576.31;6977441;28;20253;-78
2022/12/10 04:09:33;;;;;;;47.97;28.77;;;;;;;6.62;61.81;97586.44;6979710;28;20235;-79
2022/12/10 04:16:33;;;;;;;51.87;29.97;;;;;;;6.56;62.30;97602.50;6977926;28;20567;-78
2022/12/10 04:19:55;;;;;;;51.73;28.13;;;;;;;6.73;62.03;97596.47;6979525;28;20317;-79
2022/12/10 04:26:57;;;;;;;49.43;28.27;;;;;;;6.65;61.26;97585.16;6978719;28;20182;-79
2022/12/10 04:30:20;;;;;;;51.40;29.63;;;;;;;7.17;60.90;97595.69;6979043;28;20596;-79
2022/12/10 04:33:42;;;;;;;48.30;27.70;;;;;;;7.17;60.65;97599.22;6979689;28;20219;-80
2022/12/10 04:37:14;;;;;;;49.57;30.40;;;;;;;6.81;61.54;97611.50;6979612;28;20221;-79
2022/12/10 04:40:35;;;;;;;49.60;27.40;;;;;;;6.94;61.28;97606.94;6979540;28;20198;-79
2022/12/10 04:43:57;;;;;;;51.87;28.00;;;;;;;6.69;61.61;97565.81;6978829;28;20210;-79
2022/12/10 04:47:20;;;;;;;45.87;27.77;;;;;;;7.00;61.05;97616.81;6977677;28;20214;-79
2022/12/10 04:50:42;;;;;;;46.63;27.70;;;;;;;7.14;60.40;97610.34;6989887;28;20238;-79
2022/12/10 04:54:08;;;;;;;43.90;28.53;;;;;;;6.93;61.01;97618.69;7005367;28;20210;-79
2022/12/10 04:57:30;;;;;;;50.47;29.77;;;;;;;6.79;61.48;97629.66;7005826;28;20217;-79
2022/12/10 05:00:51;;;;;;;58.93;33.20;;;;;;;6.83;61.64;97630.88;7006471;28;20646;-79
2022/12/10 05:04:20;;;;;;;54.10;29.63;;;;;;;6.52;62.04;97618.16;7005924;28;20209;-79
2022/12/10 05:07:42;;;;;;;61.30;31.47;;;;;;;6.78;61.60;97620.78;7006206;28;20226;-81
2022/12/10 05:11:05;;;;;;;55.80;29.67;;;;;;;6.26;62.54;97606.66;7005535;28;20249;-82
2022/12/10 05:14:27;;;;;;;49.97;30.43;;;;;;;6.75;61.82;97628.41;7006324;28;20200;-79
2022/12/10 05:17:50;;;;;;;46.00;28.90;;;;;;;6.56;61.55;97632.78;7005522;28;20238;-79
2022/12/10 05:21:15;;;;;;;44.53;28.13;;;;;;;6.54;61.95;97634.03;7006257;28;20202;-79
2022/12/10 05:24:35;;;;;;;41.53;27.10;;;;;;;6.77;61.49;97619.13;7006160;28;20206;-79
2022/12/10 05:28:10;;;;;;;42.40;27.23;;;;;;;6.55;61.71;97622.28;7005535;28;20263;-79
2022/12/10 05:31:32;;;;;;;45.80;28.43;;;;;;;6.69;61.40;97624.72;7006301;28;20256;-79
2022/12/10 05:35:07;;;;;;;48.17;29.30;;;;;;;6.82;61.92;97630.06;7005038;28;20201;-79
2022/12/10 05:38:32;;;;;;;49.40;29.07;;;;;;;6.90;61.50;97621.78;7005125;28;20241;-79
2022/12/10 05:41:54;;;;;;;49.87;31.77;;;;;;;6.85;61.60;97616.22;7006850;28;20202;-78
2022/12/10 05:45:16;;;;;;;56.17;31.00;;;;;;;7.15;60.89;97629.94;7011041;28;20662;-79
2022/12/10 05:48:39;;;;;;;51.37;30.43;;;;;;;6.93;60.98;97637.44;7011744;28;20222;-79
2022/12/10 05:52:09;;;;;;;53.40;30.57;;;;;;;7.01;61.16;97621.13;7011770;28;20319;-79
2022/12/10 05:55:33;;;;;;;48.97;30.30;;;;;;;6.69;61.28;97626.56;7011390;28;20195;-79
2022/12/10 05:59:02;;;;;;;47.37;29.03;;;;;;;6.68;61.53;97627.59;7011111;28;20299;-79
2022/12/10 06:02:24;;;;;;;45.40;28.20;;;;;;;6.81;61.40;97647.16;7011867;28;20214;-79
2022/12/10 06:05:45;;;;;;;46.37;28.10;;;;;;;6.65;61.22;97644.91;7009161;28;20256;-80
2022/12/10 06:09:10;;;;;;;46.70;27.57;;;;;;;6.70;61.00;97652.31;7007665;28;20812;-79
2022/12/10 06:12:33;;;;;;;47.90;27.23;;;;;;;6.66;61.74;97648.44;7010262;28;20234;-79
2022/12/10 06:15:55;;;;;;;45.20;27.57;;;;;;;6.64;60.71;97642.44;7011094;28;20205;-79
2022/12/10 06:19:21;;;;;;;40.90;25.77;;;;;;;6.15;61.05;97642.91;7010694;28;20271;-79
2022/12/10 06:22:43;;;;;;;37.00;24.43;;;;;;;6.71;60.25;97664.69;7010874;28;20190;-79
2022/12/10 06:26:05;;;;;;;38.87;24.37;;;;;;;6.54;60.13;97664.28;7008665;28;20595;-79
2022/12/10 06:29:28;;;;;;;39.37;23.70;;;;;;;6.42;60.59;97671.28;7010467;28;20227;-79
2022/12/10 06:32:50;;;;;;;39.73;25.47;;;;;;;6.39;60.42;97636.09;7010795;28;20895;-78
2022/12/10 06:36:14;;;;;;;34.80;24.20;;;;;;;6.25;60.58;97674.59;7010618;28;20207;-78
2022/12/10 06:39:36;;;;;;;37.97;24.07;;;;;;;6.44;60.65;97671.94;7010198;28;20239;-79
2022/12/10 06:42:58;;;;;;;31.97;22.33;;;;;;;6.46;60.19;97651.13;7010996;28;20239;-79
2022/12/10 06:46:21;;;;;;;40.27;24.03;;;;;;;6.65;60.18;97678.88;7008721;28;20213;-79
2022/12/10 06:49:43;;;;;;;38.97;25.30;;;;;;;6.57;60.09;97682.63;7008576;28;20234;-79
2022/12/10 06:53:10;;;;;;;39.57;24.20;;;;;;;6.58;60.42;97676.25;6983070;28;20227;-79
2022/12/10 06:56:32;;;;;;;37.73;24.73;;;;;;;5.97;60.31;97648.03;6981189;28;20297;-79
2022/12/10 06:59:54;;;;;;;39.53;24.83;;;;;;;6.32;60.42;97680.78;6983219;28;20251;-79
2022/12/10 07:03:17;;;;;;;35.93;24.27;;;;;;;6.22;60.27;97664.28;6984708;28;20228;-79
2022/12/10 07:06:40;;;;;;;37.30;25.13;;;;;;;6.36;60.33;97690.06;6983149;28;20703;-79
2022/12/10 07:10:01;;;;;;;37.30;24.53;;;;;;;6.41;60.09;97666.13;6979643;28;20601;-82
2022/12/10 07:13:24;;;;;;;37.27;24.30;;;;;;;6.67;60.51;97682.22;6979659;28;20351;-83
2022/12/10 07:16:46;;;;;;;34.83;24.20;;;;;;;6.71;59.48;97688.81;6980344;28;20732;-83
2022/12/10 07:20:11;;;;;;;34.40;24.50;;;;;;;6.68;59.32;97694.56;6988467;28;20265;-83
2022/12/10 07:23:33;;;;;;;38.07;23.33;;;;;;;6.17;59.72;97696.19;6992410;28;20202;-83
2022/12/10 07:26:55;;;;;;;34.67;23.53;;;;;;;6.23;59.76;97698.88;6992299;28;20202;-82
2022/12/10 07:30:16;;;;;;;34.43;23.27;;;;;;;5.94;60.17;97701.94;6993890;28;20227;-83
2022/12/10 07:33:39;;;;;;;41.33;25.57;;;;;;;5.92;60.77;97687.94;6994085;28;20237;-83
2022/12/10 07:37:03;;;;;;;38.17;26.17;;;;;;;6.14;60.67;97697.41;6994081;28;20238;-83
2022/12/10 07:40:33;;;;;;;39.43;25.47;;;;;;;6.48;59.67;97705.28;6987034;28;20702;-82
2022/12/10 07:43:58;;;;;;;33.70;24.57;;;;;;;6.26;59.90;97700.34;6991370;28;20190;-82
2022/12/10 07:47:20;;;;;;;37.93;24.37;;;;;;;6.64;59.39;97720.09;6992970;28;20305;-78
2022/12/10 07:50:47;;;;;;;40.03;26.07;;;;;;;6.51;59.62;97717.44;7011221;28;20209;-84
2022/12/10 07:54:10;;;;;;;34.33;23.97;;;;;;;6.48;59.00;97712.50;7003081;28;20230;-84
2022/12/10 07:57:32;;;;;;;37.67;25.27;;;;;;;6.60;59.35;97706.28;6992132;28;20326;-83
2022/12/10 08:00:54;;;;;;;40.90;24.57;;;;;;;6.66;58.99;97737.59;6992917;28;20214;-83
2022/12/10 08:04:16;;;;;;;39.37;25.40;;;;;;;6.45;59.33;97720.94;6992725;28;20213;-82
2022/12/10 08:07:37;;;;;;;38.93;25.43;;;;;;;6.33;59.67;97725.25;6989511;28;20226;-77
2022/12/10 08:11:02;;;;;;;36.83;24.33;;;;;;;6.19;60.37;97742.31;7001865;28;20399;-83
2022/12/10 08:14:27;;;;;;;39.13;24.07;;;;;;;6.34;60.69;97741.09;7016726;28;20228;-81
2022/12/10 08:17:48;;;;;;;34.67;23.70;;;;;;;6.54;59.70;97754.50;7017964;28;20225;-78
2022/12/10 08:21:22;;;;;;;38.07;24.33;;;;;;;6.46;59.25;97733.28;7013996;28;20256;-84
2022/12/10 08:24:46;;;;;;;40.33;25.40;;;;;;;6.45;59.41;97759.25;7011804;28;20921;-83
2022/12/10 08:28:09;;;;;;;36.77;24.83;;;;;;;6.67;59.60;97747.28;6986450;28;20227;-83
2022/12/10 08:31:31;;;;;;;33.03;22.63;;;;;;;6.61;59.84;97744.63;6981739;28;20236;-82
2022/12/10 08:34:53;;;;;;;33.83;23.03;;;;;;;6.85;58.96;97738.63;6989742;28;20215;-83
2022/12/10 08:38:14;;;;;;;35.43;23.27;;;;;;;6.98;58.66;97750.16;6979910;28;20235;-82
2022/12/10 08:41:36;;;;;;;37.03;23.37;;;;;;;7.10;58.15;97748.50;6977884;28;20732;-77
2022/12/10 08:45:01;;;;;;;34.60;24.53;;;;;;;6.86;58.06;97734.91;6977381;28;20204;-81
2022/12/10 08:48:23;;;;;;;34.90;24.40;;;;;;;6.77;58.91;97750.38;6981524;28;20691;-83
2022/12/10 08:51:45;;;;;;;37.90;25.70;;;;;;;6.58;58.87;97704.84;6980220;28;20229;-81
2022/12/10 08:55:07;;;;;;;38.13;25.20;;;;;;;7.06;58.09;97749.09;6974984;28;20241;-75
2022/12/10 08:58:29;;;;;;;39.13;26.20;;;;;;;7.00;58.16;97748.09;6973992;28;20250;-75
2022/12/10 09:01:53;;;;;;;34.57;22.40;;;;;;;6.91;58.54;97746.69;6974884;28;20592;-77
2022/12/10 09:05:15;;;;;;;31.13;23.57;;;;;;;7.08;58.27;97768.50;6991121;28;20282;-78
2022/12/10 09:08:36;;;;;;;33.80;24.23;;;;;;;7.04;58.51;97778.81;7002741;28;20266;-74
2022/12/10 09:11:58;;;;;;;33.07;23.17;;;;;;;7.13;58.50;97774.88;7002072;28;20315;-74
2022/12/10 09:15:19;;;;;;;33.23;21.83;;;;;;;7.37;57.06;97768.84;7001753;28;20381;-75
2022/12/10 09:18:42;;;;;;;30.87;21.97;;;;;;;7.09;57.35;97776.34;6983316;28;20255;-75
2022/12/10 09:22:04;;;;;;;31.03;21.20;;;;;;;7.39;56.76;97777.53;6975295;28;20212;-76
2022/12/10 09:25:25;;;;;;;32.60;21.83;;;;;;;7.26;57.37;97780.19;6996514;28;20273;-76
2022/12/10 09:28:48;;;;;;;30.73;21.43;;;;;;;7.37;56.89;97786.81;7005317;28;20227;-76
2022/12/10 09:32:10;;;;;;;33.67;22.60;;;;;;;7.62;55.91;97793.97;6997414;28;20329;-76
2022/12/10 09:35:33;;;;;;;31.37;21.00;;;;;;;7.45;54.97;97781.19;6990846;28;20276;-76
2022/12/10 09:38:55;;;;;;;31.03;21.37;;;;;;;7.47;55.92;97773.75;6984330;28;20234;-75
2022/12/10 09:42:25;;;;;;;31.73;21.60;;;;;;;7.64;55.82;97780.31;6987539;28;20668;-75
2022/12/10 09:45:53;;;;;;;28.27;20.60;;;;;;;7.84;54.99;97776.53;6984456;28;20219;-75
2022/12/10 09:49:21;;;;;;;34.33;22.00;;;;;;;7.69;54.86;97767.94;6974276;28;20318;-75
2022/12/10 09:52:47;;;;;;;27.57;18.27;;;;;;;7.41;55.53;97790.69;6994523;28;20214;-75
2022/12/10 09:56:17;;;;;;;25.23;19.40;;;;;;;7.54;54.30;97783.44;6996219;28;20210;-75
2022/12/10 09:59:41;;;;;;;26.13;19.70;;;;;;;7.67;54.19;97778.03;6990587;28;20246;-75
2022/12/10 10:03:03;;;;;;;27.43;20.53;;;;;;;7.66;54.92;97765.66;6997107;28;20340;-75
2022/12/10 10:06:27;;;;;;;25.97;19.40;;;;;;;7.61;54.78;97781.56;6982463;28;20198;-77
2022/12/10 10:09:52;;;;;;;26.33;18.60;;;;;;;7.38;55.22;97756.28;6987871;28;20227;-78
2022/12/10 10:13:18;;;;;;;28.03;19.10;;;;;;;7.16;54.82;97770.94;6974427;28;20326;-77
2022/12/10 10:16:45;;;;;;;27.07;18.97;;;;;;;7.66;54.59;97783.63;6978255;28;20676;-76
2022/12/10 10:20:07;;;;;;;26.23;19.57;;;;;;;7.71;54.59;97773.91;6974182;28;20223;-77
2022/12/10 10:23:29;;;;;;;31.30;20.90;;;;;;;7.68;55.04;97793.13;6973802;28;20606;-77
2022/12/10 10:26:53;;;;;;;29.30;20.53;;;;;;;7.59;55.35;97778.28;6976286;28;20286;-77
2022/12/10 10:30:17;;;;;;;31.43;20.70;;;;;;;7.39;56.12;97774.00;6980933;28;20589;-79
2022/12/10 10:33:50;;;;;;;29.13;20.80;;;;;;;7.31;56.04;97769.69;6994444;28;20230;-83
2022/12/10 10:37:20;;;;;;;31.80;22.00;;;;;;;7.34;56.29;97785.38;7005305;28;20206;-76
2022/12/10 10:40:45;;;;;;;28.80;19.13;;;;;;;7.58;55.54;97773.13;7005815;28;20306;-76
2022/12/10 10:44:15;;;;;;;26.80;17.97;;;;;;;7.81;54.34;97768.09;7005025;28;20203;-77
2022/12/10 10:47:37;;;;;;;25.93;20.13;;;;;;;8.15;53.17;97784.66;7005817;28;20313;-77
2022/12/10 10:51:10;;;;;;;25.77;17.73;;;;;;;8.24;53.73;97778.03;7007067;28;20217;-81
2022/12/10 10:54:42;;;;;;;25.67;17.80;;;;;;;8.46;51.97;97779.34;7020152;28;20219;-82
2022/12/10 10:58:03;;;;;;;27.00;18.87;;;;;;;8.85;51.81;97762.09;7018914;28;20757;-82
2022/12/10 11:01:27;;;;;;;28.20;20.37;;;;;;;8.85;50.92;97780.91;7007629;28;20261;-77
2022/12/10 11:04:50;;;;;;;33.40;22.63;;;;;;;8.70;51.72;97794.66;7006957;28;20634;-80
2022/12/10 11:08:15;;;;;;;35.10;23.40;;;;;;;8.52;52.45;97797.28;7009097;28;20226;-79
2022/12/10 11:11:40;;;;;;;30.50;21.00;;;;;;;8.01;53.21;97793.78;7008941;28;20555;-77
2022/12/10 11:15:02;;;;;;;27.87;19.30;;;;;;;7.98;53.10;97790.72;7007106;28;20197;-77
2022/12/10 11:18:31;;;;;;;24.73;18.87;;;;;;;8.31;52.87;97800.28;7006474;28;20780;-77
2022/12/10 11:21:52;;;;;;;26.63;19.20;;;;;;;8.27;52.33;97807.13;7008917;28;20249;-78
2022/12/10 11:25:14;;;;;;;24.50;18.70;;;;;;;7.80;53.04;97787.91;7005748;28;20275;-77
2022/12/10 11:28:45;;;;;;;29.80;19.93;;;;;;;8.00;52.80;97800.22;7003519;28;20319;-77
2022/12/10 11:32:17;;;;;;;32.37;21.10;;;;;;;7.97;53.15;97797.13;7010473;28;20302;-77
2022/12/10 11:35:51;;;;;;;29.13;21.10;;;;;;;7.94;53.41;97794.84;7032524;28;20421;-77
2022/12/10 11:39:26;;;;;;;27.83;20.73;;;;;;;8.17;52.79;97804.06;7034713;28;20238;-77
2022/12/10 11:42:56;;;;;;;26.70;18.80;;;;;;;7.87;52.34;97820.91;7034223;28;20238;-76
2022/12/10 11:46:30;;;;;;;30.07;21.07;;;;;;;7.55;53.42;97803.06;7005365;28;20244;-76
2022/12/10 11:50:02;;;;;;;26.97;20.33;;;;;;;8.23;52.53;97800.53;7003299;28;20259;-76
2022/12/10 11:53:39;;;;;;;26.30;19.90;;;;;;;8.18;51.62;97778.00;7003750;28;20792;-76
2022/12/10 11:57:05;;;;;;;26.20;18.97;;;;;;;7.95;52.14;97807.25;7003012;28;20254;-76
2022/12/10 12:00:28;;;;;;;27.10;19.93;;;;;;;7.93;52.23;97799.41;7005793;28;20229;-78
2022/12/10 12:04:01;;;;;;;24.63;19.07;;;;;;;7.79;52.17;97805.84;7005322;28;20206;-78
2022/12/10 12:07:36;;;;;;;24.33;18.17;;;;;;;7.73;51.49;97816.63;7003632;28;20332;-77
2022/12/10 12:11:07;;;;;;;26.20;18.33;;;;;;;6.94;53.14;97754.28;7003029;28;20271;-78
2022/12/10 12:14:32;;;;;;;27.30;19.07;;;;;;;7.99;52.24;97803.09;7003301;28;20281;-78
2022/12/10 12:17:57;;;;;;;25.33;18.53;;;;;;;7.64;51.98;97807.13;6982911;28;20295;-77
2022/12/10 12:21:19;;;;;;;27.80;18.13;;;;;;;7.20;52.06;97769.50;7006252;28;20192;-78
2022/12/10 12:24:44;;;;;;;31.47;25.37;;;;;;;7.85;51.23;97775.47;6994027;28;20351;-78
2022/12/10 12:28:13;;;;;;;21.80;17.83;;;;;;;7.89;50.96;97810.78;6984281;28;20230;-78
2022/12/10 12:31:38;;;;;;;24.73;18.57;;;;;;;7.76;51.01;97792.88;6995513;28;20223;-78
2022/12/10 12:35:01;;;;;;;26.57;18.73;;;;;;;8.19;49.77;97798.47;6996209;28;20232;-78
2022/12/10 12:38:30;;;;;;;24.73;17.93;;;;;;;8.30;50.23;97833.53;6978248;28;20761;-79
2022/12/10 12:41:55;;;;;;;48.97;31.17;;;;;;;8.04;50.42;97827.44;7004567;28;20215;-79
2022/12/10 12:45:21;;;;;;;29.43;21.77;;;;;;;7.82;50.99;97828.75;6999901;28;20238;-78
2022/12/10 12:48:49;;;;;;;46.47;28.13;;;;;;;7.63;51.27;97835.84;7001697;28;20251;-78
2022/12/10 12:52:29;;;;;;;26.80;19.53;;;;;;;7.92;51.21;97829.97;7002685;28;20230;-78
2022/12/10 12:55:57;;;;;;;25.43;18.53;;;;;;;7.54;50.51;97799.53;6975557;28;20194;-79
2022/12/10 12:59:26;;;;;;;26.43;17.60;;;;;;;7.46;50.65;97823.91;6977274;28;20780;-79
2022/12/10 13:02:59;;;;;;;27.47;18.20;;;;;;;8.04;50.55;97854.28;6985681;28;20241;-79
2022/12/10 13:06:23;;;;;;;24.57;17.70;;;;;;;7.95;50.22;97851.00;7000184;28;20196;-77
2022/12/10 13:09:47;;;;;;;27.63;19.23;;;;;;;8.21;50.00;97864.38;7003646;28;20222;-78
2022/12/10 13:13:23;;;;;;;22.40;16.73;;;;;;;7.07;51.08;97794.47;7006083;28;20235;-78
2022/12/10 13:16:50;;;;;;;23.53;16.33;;;;;;;7.22;51.53;97858.56;7005672;28;20668;-80
2022/12/10 13:20:35;;;;;;;23.77;17.23;;;;;;;8.08;50.63;97860.88;7005271;28;20231;-80
2022/12/10 13:24:09;;;;;;;24.83;19.00;;;;;;;7.86;51.20;97867.56;7004801;28;20240;-80
2022/12/10 13:27:33;;;;;;;21.00;15.07;;;;;;;8.07;49.21;97880.72;7002601;28;20227;-80
2022/12/10 13:31:20;;;;;;;19.70;16.10;;;;;;;7.63;49.76;97872.56;7005388;28;20187;-79
2022/12/10 13:34:42;;;;;;;18.23;14.40;;;;;;;7.61;49.38;97877.31;6968188;28;20326;-79
2022/12/10 13:38:17;;;;;;;19.83;15.20;;;;;;;7.73;49.02;97865.72;7002897;28;20264;-79
2022/12/10 13:45:33;;;;;;;20.47;15.13;;;;;;;7.72;49.01;97893.56;7006196;28;20180;-79
2022/12/10 13:48:55;;;;;;;19.07;14.20;;;;;;;7.90;48.28;97899.13;7007270;28;20256;-79
2022/12/10 13:52:20;;;;;;;15.77;12.93;;;;;;;8.17;47.28;97897.19;7008801;28;20241;-79
2022/12/10 13:55:47;;;;;;;16.77;13.17;;;;;;;7.49;48.52;97905.81;7002909;28;20256;-79
2022/12/10 13:59:20;;;;;;;28.63;18.73;;;;;;;7.95;48.59;97906.56;7002855;28;20340;-79
2022/12/10 14:03:01;;;;;;;24.50;16.70;;;;;;;7.86;48.45;97897.91;6989986;28;20211;-79
2022/12/10 14:06:24;;;;;;;19.27;14.47;;;;;;;7.75;48.47;97906.59;6980562;28;20671;-80
2022/12/10 14:09:49;;;;;;;16.83;14.00;;;;;;;7.50;48.80;97902.91;6980542;28;20219;-79
2022/12/10 14:13:14;;;;;;;19.60;14.03;;;;;;;7.47;49.44;97929.28;6980703;28;20235;-79
2022/12/10 14:16:36;;;;;;;19.17;14.50;;;;;;;7.56;48.97;97925.38;6980400;28;20298;-79
2022/12/10 14:19:58;;;;;;;19.47;15.07;;;;;;;7.47;49.59;97927.44;6980935;28;20258;-79
2022/12/10 14:23:36;;;;;;;20.47;14.60;;;;;;;7.57;48.76;97925.19;6980696;28;20214;-79
2022/12/10 14:27:01;;;;;;;21.27;14.10;;;;;;;7.66;48.78;97937.34;6979084;28;20197;-79
2022/12/10 14:30:26;;;;;;;20.30;15.27;;;;;;;6.91;50.32;97909.28;6980913;28;20298;-79
2022/12/10 14:33:49;;;;;;;20.10;14.37;;;;;;;7.47;49.61;97934.66;6984655;28;20264;-79
2022/12/10 14:37:14;;;;;;;21.23;15.27;;;;;;;7.33;50.28;97938.38;6981876;28;20613;-79
2022/12/10 14:40:39;;;;;;;20.83;14.70;;;;;;;7.51;49.26;97943.94;6980968;28;20224;-79
2022/12/10 14:44:04;;;;;;;17.20;12.93;;;;;;;7.25;49.29;97946.63;6980835;28;20242;-79
2022/12/10 14:47:27;;;;;;;22.30;16.43;;;;;;;7.51;49.16;97944.78;6979460;28;20665;-80
2022/12/10 14:50:49;;;;;;;20.10;15.30;;;;;;;7.53;49.21;97957.97;6982384;28;20213;-79
2022/12/10 14:54:26;;;;;;;20.83;14.33;;;;;;;6.83;51.08;97969.22;6979697;28;20270;-79
2022/12/10 14:57:50;;;;;;;19.97;14.23;;;;;;;6.93;51.60;97966.16;6980501;28;20251;-78
2022/12/10 15:01:17;;;;;;;24.53;18.00;;;;;;;7.20;51.90;97984.75;6983409;28;20727;-78
2022/12/10 15:04:46;;;;;;;25.63;19.23;;;;;;;7.12;53.05;97982.28;6978085;28;20189;-77
2022/12/10 15:08:13;;;;;;;24.90;17.60;;;;;;;7.12;53.80;98002.88;6978195;28;20252;-77
2022/12/10 15:11:34;;;;;;;133.37;62.80;;;;;;;7.04;55.20;97998.56;6978397;28;20229;-77
2022/12/10 15:14:56;;;;;;;31.53;21.37;;;;;;;6.84;55.38;98011.06;6977623;28;20709;-77
2022/12/10 15:18:20;;;;;;;31.43;20.53;;;;;;;6.75;56.40;98006.91;6977418;28;20268;-77
2022/12/10 15:21:44;;;;;;;28.23;17.87;;;;;;;6.52;57.31;98009.06;6977016;28;20295;-78
2022/12/10 15:25:15;;;;;;;28.53;19.10;;;;;;;6.41;56.96;97993.56;6983163;28;20235;-77
2022/12/10 15:28:39;;;;;;;28.77;19.93;;;;;;;6.71;56.78;98012.88;7006574;28;20244;-80
2022/12/10 15:32:05;;;;;;;32.93;21.80;;;;;;;6.55;57.31;98010.53;6998369;28;20258;-77
2022/12/10 15:35:28;;;;;;;27.37;19.87;;;;;;;6.99;56.54;98017.09;7008262;28;20712;-80
2022/12/10 15:38:51;;;;;;;28.77;19.97;;;;;;;6.47;58.37;98016.03;6982439;28;20732;-80
2022/12/10 15:42:29;;;;;;;32.37;21.07;;;;;;;6.75;57.95;98017.63;6982154;28;20675;-80
2022/12/10 15:45:51;;;;;;;30.07;20.37;;;;;;;6.90;57.67;98018.28;6980531;28;20198;-80
2022/12/10 15:49:14;;;;;;;35.57;23.00;;;;;;;6.83;57.46;98006.72;6980156;28;20319;-80
2022/12/10 15:52:36;;;;;;;29.27;20.97;;;;;;;6.97;56.72;98032.56;6980388;28;20216;-78
2022/12/10 15:55:58;;;;;;;31.03;19.70;;;;;;;6.58;57.22;98019.00;6987329;28;20205;-78
2022/12/10 15:59:21;;;;;;;29.97;20.27;;;;;;;6.65;56.96;98030.56;6989770;28;20615;-85
2022/12/10 16:02:54;;;;;;;25.60;17.10;;;;;;;6.76;55.50;98030.00;7007887;28;20208;-84
2022/12/10 16:06:19;;;;;;;28.67;18.27;;;;;;;6.53;55.74;98009.88;7007705;28;20276;-84
2022/12/10 16:09:44;;;;;;;27.27;18.07;;;;;;;6.28;55.43;97972.09;6999428;28;20233;-84